sensor_id;sensor_type;location;lat;lon;timestamp;temperature;humidity
74511;DHT22;62991;50.040;18.400;2023-02-19T00:02:25;8.40;74.00
74511;DHT22;62991;50.040;18.400;2023-02-19T00:05:26;8.60;73.60
74511;DHT22;62991;50.040;18.400;2023-02-19T00:08:29;8.60;73.60
74511;DHT22;62991;50.040;18.400;2023-02-19T00:11:34;8.70;73.00
74511;DHT22;62991;50.040;18.400;2023-02-19T00:14:34;8.70;73.00
74511;DHT22;62991;50.040;18.400;2023-02-19T00:17:35;8.50;73.60
74511;DHT22;62991;50.040;18.400;2023-02-19T00:20:35;8.50;74.00
74511;DHT22;62991;50.040;18.400;2023-02-19T00:23:36;8.40;74.00
74511;DHT22;62991;50.040;18.400;2023-02-19T00:26:38;8.30;74.20
74511;DHT22;62991;50.040;18.400;2023-02-19T00:29:40;8.30;74.30
74511;DHT22;62991;50.040;18.400;2023-02-19T00:32:41;8.20;74.20
74511;DHT22;62991;50.040;18.400;2023-02-19T00:35:41;8.10;74.90
74511;DHT22;62991;50.040;18.400;2023-02-19T00:38:43;8.20;74.70
74511;DHT22;62991;50.040;18.400;2023-02-19T00:41:44;8.20;74.70
74511;DHT22;62991;50.040;18.400;2023-02-19T00:44:45;8.30;74.70
74511;DHT22;62991;50.040;18.400;2023-02-19T00:47:46;8.10;75.10
74511;DHT22;62991;50.040;18.400;2023-02-19T00:50:47;8.00;75.50
74511;DHT22;62991;50.040;18.400;2023-02-19T00:53:47;8.10;75.20
74511;DHT22;62991;50.040;18.400;2023-02-19T00:56:49;8.10;75.30
74511;DHT22;62991;50.040;18.400;2023-02-19T00:59:50;8.10;75.40
74511;DHT22;62991;50.040;18.400;2023-02-19T01:02:50;8.10;75.80
74511;DHT22;62991;50.040;18.400;2023-02-19T01:05:52;8.00;76.20
74511;DHT22;62991;50.040;18.400;2023-02-19T01:08:53;8.00;76.20
74511;DHT22;62991;50.040;18.400;2023-02-19T01:11:53;8.00;76.40
74511;DHT22;62991;50.040;18.400;2023-02-19T01:14:54;8.00;76.40
74511;DHT22;62991;50.040;18.400;2023-02-19T01:17:54;8.00;76.50
74511;DHT22;62991;50.040;18.400;2023-02-19T01:20:55;8.00;76.50
74511;DHT22;62991;50.040;18.400;2023-02-19T01:23:57;8.00;76.50
74511;DHT22;62991;50.040;18.400;2023-02-19T01:26:58;8.00;76.30
74511;DHT22;62991;50.040;18.400;2023-02-19T01:29:58;8.10;76.40
74511;DHT22;62991;50.040;18.400;2023-02-19T01:32:59;8.00;76.40
74511;DHT22;62991;50.040;18.400;2023-02-19T01:36:02;7.80;77.10
74511;DHT22;62991;50.040;18.400;2023-02-19T01:39:05;7.80;77.60
74511;DHT22;62991;50.040;18.400;2023-02-19T01:42:13;7.80;77.80
74511;DHT22;62991;50.040;18.400;2023-02-19T01:48:30;7.80;77.50
74511;DHT22;62991;50.040;18.400;2023-02-19T01:51:35;7.80;77.90
74511;DHT22;62991;50.040;18.400;2023-02-19T01:54:40;7.90;77.60
74511;DHT22;62991;50.040;18.400;2023-02-19T01:57:44;8.00;76.90
74511;DHT22;62991;50.040;18.400;2023-02-19T02:00:46;7.80;77.40
74511;DHT22;62991;50.040;18.400;2023-02-19T02:03:48;7.80;77.50
74511;DHT22;62991;50.040;18.400;2023-02-19T02:06:52;7.90;77.60
74511;DHT22;62991;50.040;18.400;2023-02-19T02:09:53;8.10;76.60
74511;DHT22;62991;50.040;18.400;2023-02-19T02:13:12;8.10;76.60
74511;DHT22;62991;50.040;18.400;2023-02-19T02:16:42;8.20;76.50
74511;DHT22;62991;50.040;18.400;2023-02-19T02:23:39;8.50;75.30
74511;DHT22;62991;50.040;18.400;2023-02-19T02:33:24;8.80;73.90
74511;DHT22;62991;50.040;18.400;2023-02-19T02:36:34;8.80;74.10
74511;DHT22;62991;50.040;18.400;2023-02-19T02:39:36;8.90;73.90
74511;DHT22;62991;50.040;18.400;2023-02-19T02:42:39;8.70;74.40
74511;DHT22;62991;50.040;18.400;2023-02-19T02:45:40;8.80;74.30
74511;DHT22;62991;50.040;18.400;2023-02-19T02:48:57;8.70;74.40
74511;DHT22;62991;50.040;18.400;2023-02-19T02:52:00;8.80;74.10
74511;DHT22;62991;50.040;18.400;2023-02-19T02:55:21;9.00;73.50
74511;DHT22;62991;50.040;18.400;2023-02-19T02:58:24;9.00;73.50
74511;DHT22;62991;50.040;18.400;2023-02-19T03:01:44;9.00;73.40
74511;DHT22;62991;50.040;18.400;2023-02-19T03:05:21;9.10;73.00
74511;DHT22;62991;50.040;18.400;2023-02-19T03:08:53;9.10;73.10
74511;DHT22;62991;50.040;18.400;2023-02-19T03:11:59;9.10;73.00
74511;DHT22;62991;50.040;18.400;2023-02-19T03:15:21;8.90;73.60
74511;DHT22;62991;50.040;18.400;2023-02-19T03:18:53;8.60;74.40
74511;DHT22;62991;50.040;18.400;2023-02-19T03:22:24;8.50;75.00
74511;DHT22;62991;50.040;18.400;2023-02-19T03:25:29;8.40;75.20
74511;DHT22;62991;50.040;18.400;2023-02-19T03:28:50;8.30;75.60
74511;DHT22;62991;50.040;18.400;2023-02-19T03:32:16;8.40;75.30
74511;DHT22;62991;50.040;18.400;2023-02-19T03:35:26;8.60;75.10
74511;DHT22;62991;50.040;18.400;2023-02-19T03:44:56;8.80;73.90
74511;DHT22;62991;50.040;18.400;2023-02-19T03:48:52;8.70;74.10
74511;DHT22;62991;50.040;18.400;2023-02-19T03:51:37;8.70;73.90
74511;DHT22;62991;50.040;18.400;2023-02-19T03:58:30;8.90;73.50
74511;DHT22;62991;50.040;18.400;2023-02-19T04:01:46;9.00;73.50
74511;DHT22;62991;50.040;18.400;2023-02-19T04:04:57;9.20;72.70
74511;DHT22;62991;50.040;18.400;2023-02-19T04:08:14;9.20;72.60
74511;DHT22;62991;50.040;18.400;2023-02-19T04:11:16;9.30;72.30
74511;DHT22;62991;50.040;18.400;2023-02-19T04:17:36;9.30;71.80
74511;DHT22;62991;50.040;18.400;2023-02-19T04:20:43;9.10;72.60
74511;DHT22;62991;50.040;18.400;2023-02-19T04:23:45;9.00;73.10
74511;DHT22;62991;50.040;18.400;2023-02-19T04:26:46;9.20;72.50
74511;DHT22;62991;50.040;18.400;2023-02-19T04:29:47;9.00;72.30
74511;DHT22;62991;50.040;18.400;2023-02-19T04:32:47;8.90;73.10
74511;DHT22;62991;50.040;18.400;2023-02-19T04:35:48;8.80;73.00
74511;DHT22;62991;50.040;18.400;2023-02-19T04:38:49;8.80;73.00
74511;DHT22;62991;50.040;18.400;2023-02-19T04:41:49;8.70;73.40
74511;DHT22;62991;50.040;18.400;2023-02-19T04:44:50;8.70;73.30
74511;DHT22;62991;50.040;18.400;2023-02-19T04:47:51;8.80;73.20
74511;DHT22;62991;50.040;18.400;2023-02-19T04:50:51;9.00;72.80
74511;DHT22;62991;50.040;18.400;2023-02-19T04:53:52;9.10;72.60
74511;DHT22;62991;50.040;18.400;2023-02-19T04:56:55;9.10;72.30
74511;DHT22;62991;50.040;18.400;2023-02-19T04:59:56;9.10;71.90
74511;DHT22;62991;50.040;18.400;2023-02-19T05:02:57;9.10;72.00
74511;DHT22;62991;50.040;18.400;2023-02-19T05:06:01;9.10;71.90
74511;DHT22;62991;50.040;18.400;2023-02-19T05:09:02;9.20;71.60
74511;DHT22;62991;50.040;18.400;2023-02-19T05:12:03;9.20;71.50
74511;DHT22;62991;50.040;18.400;2023-02-19T05:15:04;9.10;71.50
74511;DHT22;62991;50.040;18.400;2023-02-19T05:18:04;9.10;72.20
74511;DHT22;62991;50.040;18.400;2023-02-19T05:21:05;9.10;72.00
74511;DHT22;62991;50.040;18.400;2023-02-19T05:24:06;9.00;72.10
74511;DHT22;62991;50.040;18.400;2023-02-19T05:27:07;9.00;72.00
74511;DHT22;62991;50.040;18.400;2023-02-19T05:30:08;9.10;71.70
74511;DHT22;62991;50.040;18.400;2023-02-19T05:33:09;8.90;72.60
74511;DHT22;62991;50.040;18.400;2023-02-19T05:36:12;8.60;72.50
74511;DHT22;62991;50.040;18.400;2023-02-19T05:39:13;8.50;72.70
74511;DHT22;62991;50.040;18.400;2023-02-19T05:42:13;8.50;72.70
74511;DHT22;62991;50.040;18.400;2023-02-19T05:45:14;8.40;73.60
74511;DHT22;62991;50.040;18.400;2023-02-19T05:48:15;8.30;73.80
74511;DHT22;62991;50.040;18.400;2023-02-19T05:51:18;8.30;73.80
74511;DHT22;62991;50.040;18.400;2023-02-19T05:54:19;8.20;73.90
74511;DHT22;62991;50.040;18.400;2023-02-19T05:57:20;8.00;74.60
74511;DHT22;62991;50.040;18.400;2023-02-19T06:00:21;7.90;75.30
74511;DHT22;62991;50.040;18.400;2023-02-19T06:03:22;7.80;76.00
74511;DHT22;62991;50.040;18.400;2023-02-19T06:06:23;7.90;76.20
74511;DHT22;62991;50.040;18.400;2023-02-19T06:09:24;7.80;76.60
74511;DHT22;62991;50.040;18.400;2023-02-19T06:12:25;7.90;77.10
74511;DHT22;62991;50.040;18.400;2023-02-19T06:15:26;7.90;77.00
74511;DHT22;62991;50.040;18.400;2023-02-19T06:18:26;7.80;77.60
74511;DHT22;62991;50.040;18.400;2023-02-19T06:21:27;7.90;77.50
74511;DHT22;62991;50.040;18.400;2023-02-19T06:24:28;7.90;77.30
74511;DHT22;62991;50.040;18.400;2023-02-19T06:27:28;7.90;77.50
74511;DHT22;62991;50.040;18.400;2023-02-19T06:30:29;8.00;77.50
74511;DHT22;62991;50.040;18.400;2023-02-19T06:33:30;8.10;77.30
74511;DHT22;62991;50.040;18.400;2023-02-19T06:36:31;8.20;76.90
74511;DHT22;62991;50.040;18.400;2023-02-19T06:39:32;8.10;77.30
74511;DHT22;62991;50.040;18.400;2023-02-19T06:42:32;8.10;77.50
74511;DHT22;62991;50.040;18.400;2023-02-19T06:45:33;8.10;77.20
74511;DHT22;62991;50.040;18.400;2023-02-19T06:48:34;8.20;77.00
74511;DHT22;62991;50.040;18.400;2023-02-19T06:51:35;8.30;77.10
74511;DHT22;62991;50.040;18.400;2023-02-19T06:54:35;8.40;77.20
74511;DHT22;62991;50.040;18.400;2023-02-19T06:57:36;8.40;76.50
74511;DHT22;62991;50.040;18.400;2023-02-19T07:00:37;8.40;76.70
74511;DHT22;62991;50.040;18.400;2023-02-19T07:03:37;8.30;77.00
74511;DHT22;62991;50.040;18.400;2023-02-19T07:06:38;8.20;77.50
74511;DHT22;62991;50.040;18.400;2023-02-19T07:09:39;8.30;77.20
74511;DHT22;62991;50.040;18.400;2023-02-19T07:12:40;8.20;77.70
74511;DHT22;62991;50.040;18.400;2023-02-19T07:15:40;8.00;77.80
74511;DHT22;62991;50.040;18.400;2023-02-19T07:18:41;8.10;77.90
74511;DHT22;62991;50.040;18.400;2023-02-19T07:21:42;8.00;78.00
74511;DHT22;62991;50.040;18.400;2023-02-19T07:24:42;7.90;78.00
74511;DHT22;62991;50.040;18.400;2023-02-19T07:27:43;8.00;77.80
74511;DHT22;62991;50.040;18.400;2023-02-19T07:30:44;8.00;78.20
74511;DHT22;62991;50.040;18.400;2023-02-19T07:33:45;8.10;77.70
74511;DHT22;62991;50.040;18.400;2023-02-19T07:36:46;8.20;77.20
74511;DHT22;62991;50.040;18.400;2023-02-19T07:39:47;8.20;77.60
74511;DHT22;62991;50.040;18.400;2023-02-19T07:42:48;8.30;77.50
74511;DHT22;62991;50.040;18.400;2023-02-19T07:45:49;8.40;77.10
74511;DHT22;62991;50.040;18.400;2023-02-19T07:48:49;8.30;77.40
74511;DHT22;62991;50.040;18.400;2023-02-19T07:51:50;8.40;77.20
74511;DHT22;62991;50.040;18.400;2023-02-19T07:54:51;8.40;76.80
74511;DHT22;62991;50.040;18.400;2023-02-19T07:57:51;8.50;76.40
74511;DHT22;62991;50.040;18.400;2023-02-19T08:00:52;8.60;76.50
74511;DHT22;62991;50.040;18.400;2023-02-19T08:03:53;8.70;76.30
74511;DHT22;62991;50.040;18.400;2023-02-19T08:06:53;8.80;76.10
74511;DHT22;62991;50.040;18.400;2023-02-19T08:09:54;8.80;75.90
74511;DHT22;62991;50.040;18.400;2023-02-19T08:13:15;8.80;75.90
74511;DHT22;62991;50.040;18.400;2023-02-19T08:16:20;8.70;76.30
74511;DHT22;62991;50.040;18.400;2023-02-19T08:19:21;9.00;75.90
74511;DHT22;62991;50.040;18.400;2023-02-19T08:22:22;9.10;75.40
74511;DHT22;62991;50.040;18.400;2023-02-19T08:25:22;9.00;74.90
74511;DHT22;62991;50.040;18.400;2023-02-19T08:28:24;9.00;75.80
74511;DHT22;62991;50.040;18.400;2023-02-19T08:31:25;9.00;75.50
74511;DHT22;62991;50.040;18.400;2023-02-19T08:34:26;8.90;75.60
74511;DHT22;62991;50.040;18.400;2023-02-19T08:37:27;8.90;75.80
74511;DHT22;62991;50.040;18.400;2023-02-19T08:40:27;8.80;75.90
74511;DHT22;62991;50.040;18.400;2023-02-19T08:43:28;8.90;75.90
74511;DHT22;62991;50.040;18.400;2023-02-19T08:46:29;8.90;75.70
74511;DHT22;62991;50.040;18.400;2023-02-19T08:49:29;8.90;75.60
74511;DHT22;62991;50.040;18.400;2023-02-19T08:52:30;8.80;75.50
74511;DHT22;62991;50.040;18.400;2023-02-19T08:55:33;8.70;76.20
74511;DHT22;62991;50.040;18.400;2023-02-19T08:58:35;8.80;76.30
74511;DHT22;62991;50.040;18.400;2023-02-19T09:01:36;8.80;76.10
74511;DHT22;62991;50.040;18.400;2023-02-19T09:04:38;8.90;75.90
74511;DHT22;62991;50.040;18.400;2023-02-19T09:07:39;9.10;75.20
74511;DHT22;62991;50.040;18.400;2023-02-19T09:10:40;9.20;75.50
74511;DHT22;62991;50.040;18.400;2023-02-19T09:13:41;9.40;75.00
74511;DHT22;62991;50.040;18.400;2023-02-19T09:16:42;9.40;75.40
74511;DHT22;62991;50.040;18.400;2023-02-19T09:19:43;9.60;74.70
74511;DHT22;62991;50.040;18.400;2023-02-19T09:22:43;9.60;74.50
74511;DHT22;62991;50.040;18.400;2023-02-19T09:25:44;9.70;74.40
74511;DHT22;62991;50.040;18.400;2023-02-19T09:28:45;9.60;74.40
74511;DHT22;62991;50.040;18.400;2023-02-19T09:31:45;9.50;74.70
74511;DHT22;62991;50.040;18.400;2023-02-19T09:34:46;9.30;75.30
74511;DHT22;62991;50.040;18.400;2023-02-19T09:37:47;9.20;74.90
74511;DHT22;62991;50.040;18.400;2023-02-19T09:40:47;9.20;74.10
74511;DHT22;62991;50.040;18.400;2023-02-19T09:43:49;9.10;73.70
74511;DHT22;62991;50.040;18.400;2023-02-19T09:46:51;9.00;73.60
74511;DHT22;62991;50.040;18.400;2023-02-19T09:50:15;8.80;72.90
74511;DHT22;62991;50.040;18.400;2023-02-19T09:53:25;8.70;73.40
74511;DHT22;62991;50.040;18.400;2023-02-19T09:56:26;8.60;72.90
74511;DHT22;62991;50.040;18.400;2023-02-19T09:59:32;8.20;73.60
74511;DHT22;62991;50.040;18.400;2023-02-19T10:02:35;8.10;74.30
74511;DHT22;62991;50.040;18.400;2023-02-19T10:05:38;8.10;73.80
74511;DHT22;62991;50.040;18.400;2023-02-19T10:08:39;7.90;73.60
74511;DHT22;62991;50.040;18.400;2023-02-19T10:11:41;7.80;74.20
74511;DHT22;62991;50.040;18.400;2023-02-19T10:14:45;7.70;75.00
74511;DHT22;62991;50.040;18.400;2023-02-19T10:17:46;7.70;75.90
74511;DHT22;62991;50.040;18.400;2023-02-19T10:20:49;7.80;76.20
74511;DHT22;62991;50.040;18.400;2023-02-19T10:23:53;8.00;76.10
74511;DHT22;62991;50.040;18.400;2023-02-19T10:26:55;8.00;75.60
74511;DHT22;62991;50.040;18.400;2023-02-19T10:29:57;8.10;75.70
74511;DHT22;62991;50.040;18.400;2023-02-19T10:33:07;8.20;75.80
74511;DHT22;62991;50.040;18.400;2023-02-19T10:42:22;8.10;74.00
74511;DHT22;62991;50.040;18.400;2023-02-19T10:45:32;8.10;73.60
74511;DHT22;62991;50.040;18.400;2023-02-19T10:48:39;8.20;73.50
74511;DHT22;62991;50.040;18.400;2023-02-19T10:51:41;8.30;73.50
74511;DHT22;62991;50.040;18.400;2023-02-19T10:54:43;8.40;73.60
74511;DHT22;62991;50.040;18.400;2023-02-19T10:57:45;8.40;73.40
74511;DHT22;62991;50.040;18.400;2023-02-19T11:00:46;8.30;73.30
74511;DHT22;62991;50.040;18.400;2023-02-19T11:03:50;8.10;73.60
74511;DHT22;62991;50.040;18.400;2023-02-19T11:06:51;8.30;73.10
74511;DHT22;62991;50.040;18.400;2023-02-19T11:09:52;8.40;73.10
74511;DHT22;62991;50.040;18.400;2023-02-19T11:12:59;8.50;72.30
74511;DHT22;62991;50.040;18.400;2023-02-19T11:16:00;8.40;73.00
74511;DHT22;62991;50.040;18.400;2023-02-19T11:19:01;8.20;73.50
74511;DHT22;62991;50.040;18.400;2023-02-19T11:25:30;8.20;71.50
74511;DHT22;62991;50.040;18.400;2023-02-19T11:28:40;8.30;71.20
74511;DHT22;62991;50.040;18.400;2023-02-19T11:31:42;8.30;69.60
74511;DHT22;62991;50.040;18.400;2023-02-19T11:34:43;8.20;70.30
74511;DHT22;62991;50.040;18.400;2023-02-19T11:37:55;8.10;70.20
74511;DHT22;62991;50.040;18.400;2023-02-19T11:57:44;7.70;70.60
74511;DHT22;62991;50.040;18.400;2023-02-19T12:01:10;7.40;70.70
74511;DHT22;62991;50.040;18.400;2023-02-19T12:28:04;6.80;69.70
74511;DHT22;62991;50.040;18.400;2023-02-19T12:44:46;7.20;70.00
74511;DHT22;62991;50.040;18.400;2023-02-19T12:54:37;6.30;70.80
74511;DHT22;62991;50.040;18.400;2023-02-19T12:57:40;6.20;70.20
74511;DHT22;62991;50.040;18.400;2023-02-19T13:00:48;6.30;70.00
74511;DHT22;62991;50.040;18.400;2023-02-19T13:07:19;6.10;70.20
74511;DHT22;62991;50.040;18.400;2023-02-19T13:10:29;6.30;69.00
74511;DHT22;62991;50.040;18.400;2023-02-19T13:13:36;6.30;68.70
74511;DHT22;62991;50.040;18.400;2023-02-19T13:16:41;6.10;69.40
74511;DHT22;62991;50.040;18.400;2023-02-19T13:19:45;6.20;69.20
74511;DHT22;62991;50.040;18.400;2023-02-19T13:23:06;5.90;69.60
74511;DHT22;62991;50.040;18.400;2023-02-19T13:30:11;5.80;70.30
74511;DHT22;62991;50.040;18.400;2023-02-19T13:37:10;5.80;68.90
74511;DHT22;62991;50.040;18.400;2023-02-19T13:46:40;5.90;67.50
74511;DHT22;62991;50.040;18.400;2023-02-19T13:49:41;5.90;66.80
74511;DHT22;62991;50.040;18.400;2023-02-19T13:52:42;6.00;67.20
74511;DHT22;62991;50.040;18.400;2023-02-19T14:05:03;5.80;67.10
74511;DHT22;62991;50.040;18.400;2023-02-19T14:08:07;5.70;67.50
74511;DHT22;62991;50.040;18.400;2023-02-19T14:11:08;6.00;66.90
74511;DHT22;62991;50.040;18.400;2023-02-19T14:17:41;6.00;66.20
74511;DHT22;62991;50.040;18.400;2023-02-19T14:20:43;6.10;65.80
74511;DHT22;62991;50.040;18.400;2023-02-19T14:23:53;6.00;64.80
74511;DHT22;62991;50.040;18.400;2023-02-19T14:26:56;6.00;64.30
74511;DHT22;62991;50.040;18.400;2023-02-19T14:29:57;5.80;64.90
74511;DHT22;62991;50.040;18.400;2023-02-19T14:33:00;5.70;65.10
74511;DHT22;62991;50.040;18.400;2023-02-19T14:36:48;5.60;66.30
74511;DHT22;62991;50.040;18.400;2023-02-19T14:39:35;5.60;66.20
74511;DHT22;62991;50.040;18.400;2023-02-19T14:42:40;5.80;67.00
74511;DHT22;62991;50.040;18.400;2023-02-19T14:45:44;5.80;66.90
74511;DHT22;62991;50.040;18.400;2023-02-19T14:48:48;5.80;67.00
74511;DHT22;62991;50.040;18.400;2023-02-19T14:51:56;5.80;66.50
74511;DHT22;62991;50.040;18.400;2023-02-19T14:58:23;6.00;66.20
74511;DHT22;62991;50.040;18.400;2023-02-19T15:01:26;6.00;66.60
74511;DHT22;62991;50.040;18.400;2023-02-19T15:04:33;6.10;66.50
74511;DHT22;62991;50.040;18.400;2023-02-19T15:07:35;6.20;66.30
74511;DHT22;62991;50.040;18.400;2023-02-19T15:10:35;6.10;66.30
74511;DHT22;62991;50.040;18.400;2023-02-19T15:13:38;6.10;66.40
74511;DHT22;62991;50.040;18.400;2023-02-19T15:16:45;6.20;66.20
74511;DHT22;62991;50.040;18.400;2023-02-19T15:19:46;6.20;66.30
74511;DHT22;62991;50.040;18.400;2023-02-19T15:22:47;6.10;64.40
74511;DHT22;62991;50.040;18.400;2023-02-19T15:25:49;6.20;66.10
74511;DHT22;62991;50.040;18.400;2023-02-19T15:29:01;5.90;64.80
74511;DHT22;62991;50.040;18.400;2023-02-19T15:32:19;5.70;65.00
74511;DHT22;62991;50.040;18.400;2023-02-19T15:35:22;5.60;65.30
74511;DHT22;62991;50.040;18.400;2023-02-19T15:38:24;5.40;64.70
74511;DHT22;62991;50.040;18.400;2023-02-19T15:41:32;5.10;65.80
74511;DHT22;62991;50.040;18.400;2023-02-19T15:44:53;5.00;65.50
74511;DHT22;62991;50.040;18.400;2023-02-19T15:48:01;5.10;64.90
74511;DHT22;62991;50.040;18.400;2023-02-19T15:51:12;5.00;63.80
74511;DHT22;62991;50.040;18.400;2023-02-19T15:54:26;4.90;64.40
74511;DHT22;62991;50.040;18.400;2023-02-19T15:57:37;4.80;64.80
74511;DHT22;62991;50.040;18.400;2023-02-19T16:00:45;5.00;64.70
74511;DHT22;62991;50.040;18.400;2023-02-19T16:03:48;4.90;64.90
74511;DHT22;62991;50.040;18.400;2023-02-19T16:13:06;4.80;65.90
74511;DHT22;62991;50.040;18.400;2023-02-19T16:16:15;4.70;66.80
74511;DHT22;62991;50.040;18.400;2023-02-19T16:19:26;4.80;66.70
74511;DHT22;62991;50.040;18.400;2023-02-19T16:22:30;4.60;67.00
74511;DHT22;62991;50.040;18.400;2023-02-19T16:28:36;4.50;67.60
74511;DHT22;62991;50.040;18.400;2023-02-19T16:31:38;4.50;67.50
74511;DHT22;62991;50.040;18.400;2023-02-19T16:34:47;4.60;67.30
74511;DHT22;62991;50.040;18.400;2023-02-19T16:37:58;4.50;67.20
74511;DHT22;62991;50.040;18.400;2023-02-19T16:41:10;4.60;67.50
74511;DHT22;62991;50.040;18.400;2023-02-19T16:47:27;4.30;67.40
74511;DHT22;62991;50.040;18.400;2023-02-19T16:50:28;4.40;67.60
74511;DHT22;62991;50.040;18.400;2023-02-19T16:53:29;4.40;67.10
74511;DHT22;62991;50.040;18.400;2023-02-19T16:56:29;4.40;67.20
74511;DHT22;62991;50.040;18.400;2023-02-19T16:59:30;4.50;66.90
74511;DHT22;62991;50.040;18.400;2023-02-19T17:02:31;4.40;67.70
74511;DHT22;62991;50.040;18.400;2023-02-19T17:05:34;4.50;67.50
74511;DHT22;62991;50.040;18.400;2023-02-19T17:08:42;4.40;67.60
74511;DHT22;62991;50.040;18.400;2023-02-19T17:11:43;4.60;67.30
74511;DHT22;62991;50.040;18.400;2023-02-19T17:14:44;4.40;67.30
74511;DHT22;62991;50.040;18.400;2023-02-19T17:17:45;4.50;67.40
74511;DHT22;62991;50.040;18.400;2023-02-19T17:21:13;4.50;67.30
74511;DHT22;62991;50.040;18.400;2023-02-19T17:24:14;4.40;67.30
74511;DHT22;62991;50.040;18.400;2023-02-19T17:27:15;4.50;67.20
74511;DHT22;62991;50.040;18.400;2023-02-19T17:30:25;4.50;67.20
74511;DHT22;62991;50.040;18.400;2023-02-19T17:33:26;4.50;66.90
74511;DHT22;62991;50.040;18.400;2023-02-19T17:36:30;4.40;66.80
74511;DHT22;62991;50.040;18.400;2023-02-19T17:39:31;4.50;66.70
74511;DHT22;62991;50.040;18.400;2023-02-19T17:42:32;4.60;66.50
74511;DHT22;62991;50.040;18.400;2023-02-19T17:45:33;4.60;66.60
74511;DHT22;62991;50.040;18.400;2023-02-19T17:48:33;4.60;66.20
74511;DHT22;62991;50.040;18.400;2023-02-19T17:51:34;4.50;66.50
74511;DHT22;62991;50.040;18.400;2023-02-19T17:54:35;4.60;66.10
74511;DHT22;62991;50.040;18.400;2023-02-19T17:57:35;4.60;66.30
74511;DHT22;62991;50.040;18.400;2023-02-19T18:00:36;4.60;66.10
74511;DHT22;62991;50.040;18.400;2023-02-19T18:03:37;4.50;65.80
74511;DHT22;62991;50.040;18.400;2023-02-19T18:06:37;4.40;65.90
74511;DHT22;62991;50.040;18.400;2023-02-19T18:09:38;4.40;65.80
74511;DHT22;62991;50.040;18.400;2023-02-19T18:12:40;4.40;65.30
74511;DHT22;62991;50.040;18.400;2023-02-19T18:15:41;4.40;65.20
74511;DHT22;62991;50.040;18.400;2023-02-19T18:18:42;4.50;65.00
74511;DHT22;62991;50.040;18.400;2023-02-19T18:21:43;4.40;65.20
74511;DHT22;62991;50.040;18.400;2023-02-19T18:24:48;4.40;65.20
74511;DHT22;62991;50.040;18.400;2023-02-19T18:27:49;4.50;64.90
74511;DHT22;62991;50.040;18.400;2023-02-19T18:30:49;4.40;64.80
74511;DHT22;62991;50.040;18.400;2023-02-19T18:33:50;4.30;64.90
74511;DHT22;62991;50.040;18.400;2023-02-19T18:36:51;4.20;64.90
74511;DHT22;62991;50.040;18.400;2023-02-19T18:39:52;4.10;65.00
74511;DHT22;62991;50.040;18.400;2023-02-19T18:42:53;4.20;64.30
74511;DHT22;62991;50.040;18.400;2023-02-19T18:45:54;4.20;64.10
74511;DHT22;62991;50.040;18.400;2023-02-19T18:48:54;4.20;63.80
74511;DHT22;62991;50.040;18.400;2023-02-19T18:51:55;4.20;63.50
74511;DHT22;62991;50.040;18.400;2023-02-19T18:54:56;4.20;63.00
74511;DHT22;62991;50.040;18.400;2023-02-19T18:57:57;4.20;63.10
74511;DHT22;62991;50.040;18.400;2023-02-19T19:00:57;4.20;62.40
74511;DHT22;62991;50.040;18.400;2023-02-19T19:03:58;3.90;63.00
74511;DHT22;62991;50.040;18.400;2023-02-19T19:06:59;3.90;63.30
74511;DHT22;62991;50.040;18.400;2023-02-19T19:10:00;3.80;63.70
74511;DHT22;62991;50.040;18.400;2023-02-19T19:13:00;3.80;63.50
74511;DHT22;62991;50.040;18.400;2023-02-19T19:16:01;3.80;63.10
74511;DHT22;62991;50.040;18.400;2023-02-19T19:19:02;3.80;63.00
74511;DHT22;62991;50.040;18.400;2023-02-19T19:22:03;3.70;63.30
74511;DHT22;62991;50.040;18.400;2023-02-19T19:25:04;3.80;63.00
74511;DHT22;62991;50.040;18.400;2023-02-19T19:28:04;3.90;62.90
74511;DHT22;62991;50.040;18.400;2023-02-19T19:31:05;3.80;63.00
74511;DHT22;62991;50.040;18.400;2023-02-19T19:34:06;3.90;63.00
74511;DHT22;62991;50.040;18.400;2023-02-19T19:37:07;3.80;63.20
74511;DHT22;62991;50.040;18.400;2023-02-19T19:40:09;3.90;63.00
74511;DHT22;62991;50.040;18.400;2023-02-19T19:43:10;3.90;62.40
74511;DHT22;62991;50.040;18.400;2023-02-19T19:46:12;3.80;62.80
74511;DHT22;62991;50.040;18.400;2023-02-19T19:49:20;3.70;63.10
74511;DHT22;62991;50.040;18.400;2023-02-19T19:52:21;3.80;62.90
74511;DHT22;62991;50.040;18.400;2023-02-19T19:55:21;3.70;62.80
74511;DHT22;62991;50.040;18.400;2023-02-19T19:58:22;3.80;63.10
74511;DHT22;62991;50.040;18.400;2023-02-19T20:01:24;3.80;62.40
74511;DHT22;62991;50.040;18.400;2023-02-19T20:04:25;3.80;62.70
74511;DHT22;62991;50.040;18.400;2023-02-19T20:07:25;3.60;63.00
74511;DHT22;62991;50.040;18.400;2023-02-19T20:10:27;3.70;63.00
74511;DHT22;62991;50.040;18.400;2023-02-19T20:13:28;3.70;63.10
74511;DHT22;62991;50.040;18.400;2023-02-19T20:16:29;3.70;63.30
74511;DHT22;62991;50.040;18.400;2023-02-19T20:19:30;3.80;63.20
74511;DHT22;62991;50.040;18.400;2023-02-19T20:22:31;3.90;63.00
74511;DHT22;62991;50.040;18.400;2023-02-19T20:25:32;3.90;63.00
74511;DHT22;62991;50.040;18.400;2023-02-19T20:28:32;3.80;63.40
74511;DHT22;62991;50.040;18.400;2023-02-19T20:31:33;3.70;63.80
74511;DHT22;62991;50.040;18.400;2023-02-19T20:34:34;3.80;64.40
74511;DHT22;62991;50.040;18.400;2023-02-19T20:37:38;3.70;64.80
74511;DHT22;62991;50.040;18.400;2023-02-19T20:40:39;3.70;65.10
74511;DHT22;62991;50.040;18.400;2023-02-19T20:43:40;3.50;65.40
74511;DHT22;62991;50.040;18.400;2023-02-19T20:46:45;3.50;65.80
74511;DHT22;62991;50.040;18.400;2023-02-19T20:49:46;3.70;65.30
74511;DHT22;62991;50.040;18.400;2023-02-19T20:52:47;3.70;65.30
74511;DHT22;62991;50.040;18.400;2023-02-19T20:55:48;3.70;65.30
74511;DHT22;62991;50.040;18.400;2023-02-19T20:58:49;3.60;65.20
74511;DHT22;62991;50.040;18.400;2023-02-19T21:01:50;3.50;65.40
74511;DHT22;62991;50.040;18.400;2023-02-19T21:04:50;3.50;65.80
74511;DHT22;62991;50.040;18.400;2023-02-19T21:07:51;3.60;65.20
74511;DHT22;62991;50.040;18.400;2023-02-19T21:10:52;3.70;65.20
74511;DHT22;62991;50.040;18.400;2023-02-19T21:13:55;3.70;65.00
74511;DHT22;62991;50.040;18.400;2023-02-19T21:16:58;3.60;65.40
74511;DHT22;62991;50.040;18.400;2023-02-19T21:19:59;3.60;65.40
74511;DHT22;62991;50.040;18.400;2023-02-19T21:23:00;3.70;64.90
74511;DHT22;62991;50.040;18.400;2023-02-19T21:26:01;3.70;64.80
74511;DHT22;62991;50.040;18.400;2023-02-19T21:29:03;3.70;65.10
74511;DHT22;62991;50.040;18.400;2023-02-19T21:32:04;3.60;64.80
74511;DHT22;62991;50.040;18.400;2023-02-19T21:35:05;3.60;65.00
74511;DHT22;62991;50.040;18.400;2023-02-19T21:38:06;3.70;64.60
74511;DHT22;62991;50.040;18.400;2023-02-19T21:41:06;3.70;64.20
74511;DHT22;62991;50.040;18.400;2023-02-19T21:44:07;3.70;64.30